Time;durP1;ratioP1;P1;durP2;ratioP2;P2;SDS_P1;SDS_P2;PMS_P1;PMS_P2;Temp;Humidity;BMP_temperature;BMP_pressure;BME280_temperature;BME280_humidity;BME280_pressure;Samples;Min_cycle;Max_cycle;Signal;HPM_P1;HPM_P2
2021/04/16 00:02:18;;;;;;;1.38;1.20;;;;;;;9.38;49.50;102097.16;5134147;27;20434;-90
2021/04/16 00:04:43;;;;;;;5.97;2.08;;;;;;;9.35;49.43;102099.03;5135007;27;20461;-90
2021/04/16 00:07:08;;;;;;;1.70;1.13;;;;;;;9.30;49.42;102093.94;5136398;27;20035;-90
2021/04/16 00:09:35;;;;;;;3.78;1.40;;;;;;;9.39;49.80;102091.00;5136302;27;20175;-90
2021/04/16 00:12:01;;;;;;;3.15;1.23;;;;;;;9.37;49.75;102092.81;5136370;27;20026;-91
2021/04/16 00:14:26;;;;;;;2.75;1.40;;;;;;;9.35;50.19;102093.78;5136065;27;20023;-90
2021/04/16 00:16:52;;;;;;;5.68;1.70;;;;;;;9.36;50.36;102091.13;5135691;27;20385;-90
2021/04/16 00:19:17;;;;;;;2.88;1.40;;;;;;;9.36;49.54;102083.25;5134787;27;20123;-90
2021/04/16 00:21:43;;;;;;;2.28;1.40;;;;;;;9.38;50.29;102088.41;5135641;27;20029;-90
2021/04/16 00:24:12;;;;;;;4.25;1.60;;;;;;;9.32;50.69;102085.13;5137160;27;20053;-90
2021/04/16 00:26:38;;;;;;;3.50;1.45;;;;;;;9.23;50.79;102076.72;5137996;27;20023;-90
2021/04/16 00:29:04;;;;;;;5.93;1.27;;;;;;;9.20;50.82;102084.69;5150632;27;20031;-89
2021/04/16 00:31:31;;;;;;;2.55;1.30;;;;;;;9.17;50.44;102079.56;5149292;27;20034;-90
2021/04/16 00:33:57;;;;;;;2.90;1.73;;;;;;;9.15;50.52;102077.00;5137943;27;20557;-90
2021/04/16 00:36:23;;;;;;;2.70;1.38;;;;;;;9.04;51.37;102073.88;5134549;27;20047;-90
2021/04/16 00:38:49;;;;;;;2.92;1.40;;;;;;;9.09;51.02;102071.97;5136368;27;20359;-90
2021/04/16 00:41:22;;;;;;;4.13;2.10;;;;;;;9.08;51.54;102081.59;5134393;27;20060;-91
2021/04/16 00:43:48;;;;;;;4.00;1.88;;;;;;;8.98;51.26;102072.31;5135535;27;20087;-91
2021/04/16 00:46:44;;;;;;;3.60;1.65;;;;;;;8.93;51.33;102077.75;5135106;27;20567;-90
2021/04/16 00:49:16;;;;;;;6.85;1.75;;;;;;;8.73;52.70;102070.56;5131044;27;20468;-90
2021/04/16 00:51:51;;;;;;;4.45;1.63;;;;;;;8.71;52.73;102076.78;5134313;27;20059;-90
2021/04/16 00:54:22;;;;;;;4.72;1.70;;;;;;;8.74;52.34;102066.16;5135767;27;20030;-90
2021/04/16 00:56:50;;;;;;;3.67;2.10;;;;;;;8.57;52.75;102069.38;5135710;27;20102;-90
2021/04/16 00:59:16;;;;;;;4.47;1.90;;;;;;;8.41;52.90;102063.78;5135228;27;20031;-90
2021/04/16 01:01:42;;;;;;;12.05;2.05;;;;;;;8.28;53.29;102060.66;5133002;27;20437;-89
2021/04/16 01:04:08;;;;;;;5.50;2.20;;;;;;;8.41;52.88;102068.09;5135286;27;20019;-90
2021/04/16 01:06:33;;;;;;;4.47;2.05;;;;;;;8.33;52.66;102066.59;5135302;27;20019;-90
2021/04/16 01:08:59;;;;;;;8.20;2.42;;;;;;;8.26;53.36;102053.75;5135247;27;20038;-91
2021/04/16 01:11:27;;;;;;;5.15;2.28;;;;;;;8.23;53.46;102059.94;5135455;27;20465;-90
2021/04/16 01:13:53;;;;;;;4.22;2.47;;;;;;;7.90;54.24;102047.00;5135343;27;20038;-91
2021/04/16 01:16:22;;;;;;;6.63;2.25;;;;;;;7.97;54.56;102049.44;5134453;27;20026;-91
2021/04/16 01:18:50;;;;;;;5.60;2.50;;;;;;;8.06;54.64;102042.16;5135197;27;20079;-91
2021/04/16 01:21:20;;;;;;;3.88;2.55;;;;;;;8.16;53.87;102052.34;5133578;27;20098;-91
2021/04/16 01:24:03;;;;;;;3.47;2.60;;;;;;;7.91;55.89;102056.56;5135059;27;20055;-90
2021/04/16 01:26:36;;;;;;;4.32;2.30;;;;;;;8.05;54.47;102045.66;5134187;27;20027;-91
2021/04/16 01:29:01;;;;;;;4.60;2.72;;;;;;;8.20;54.25;102038.25;5158437;27;20018;-92
2021/04/16 01:31:28;;;;;;;3.58;2.08;;;;;;;8.22;54.76;102058.22;5159790;27;20063;-91
2021/04/16 01:33:55;;;;;;;8.25;2.78;;;;;;;8.07;55.13;102053.47;5159729;27;20007;-91
2021/04/16 01:36:24;;;;;;;3.35;2.17;;;;;;;7.93;55.45;102056.50;5159426;27;20011;-92
2021/04/16 01:38:49;;;;;;;5.43;2.33;;;;;;;7.89;56.19;102058.34;5159733;27;20072;-91
2021/04/16 01:41:16;;;;;;;6.13;3.25;;;;;;;7.89;55.87;102045.28;5159204;27;20059;-90
2021/04/16 01:43:44;;;;;;;4.75;2.45;;;;;;;7.83;55.98;102045.47;5158893;27;20023;-92
2021/04/16 01:46:12;;;;;;;6.18;2.25;;;;;;;8.06;55.76;102057.00;5158194;27;20027;-92
2021/04/16 01:48:53;;;;;;;6.15;2.42;;;;;;;8.17;55.53;102059.28;5158660;27;20014;-91
2021/04/16 01:51:31;;;;;;;5.10;2.67;;;;;;;8.13;55.52;102063.75;5158055;27;20099;-91
2021/04/16 01:54:19;;;;;;;2.33;2.00;;;;;;;8.19;55.13;102053.09;5157306;27;20011;-91
2021/04/16 01:56:47;;;;;;;5.60;2.85;;;;;;;8.17;55.15;102049.66;5157618;27;20026;-90
2021/04/16 01:59:14;;;;;;;4.55;2.72;;;;;;;8.09;55.56;102043.81;5153590;27;20027;-91
2021/04/16 02:01:43;;;;;;;3.15;2.35;;;;;;;8.12;55.09;102041.13;5153665;27;20038;-91
2021/04/16 02:04:09;;;;;;;6.88;2.58;;;;;;;8.13;55.45;102046.28;5153945;27;20389;-91
2021/04/16 02:06:34;;;;;;;3.35;1.92;;;;;;;8.27;55.06;102050.22;5154177;27;20023;-90
2021/04/16 02:09:02;;;;;;;3.47;2.28;;;;;;;8.24;54.91;102048.56;5152862;27;20020;-91
2021/04/16 02:11:27;;;;;;;4.00;2.13;;;;;;;8.18;54.96;102051.38;5150806;27;20548;-91
2021/04/16 02:13:53;;;;;;;5.57;2.88;;;;;;;8.07;55.41;102050.84;5137238;27;20059;-91
2021/04/16 02:16:19;;;;;;;4.75;2.25;;;;;;;7.98;54.92;102048.50;5135510;27;20027;-91
2021/04/16 02:18:44;;;;;;;4.75;2.22;;;;;;;7.94;55.15;102058.25;5136053;27;20481;-90
2021/04/16 02:21:09;;;;;;;3.80;2.50;;;;;;;7.92;55.28;102060.91;5135137;27;20031;-91
2021/04/16 02:23:35;;;;;;;4.90;2.58;;;;;;;7.79;56.01;102056.94;5132680;27;20137;-91
2021/04/16 02:26:00;;;;;;;3.38;2.35;;;;;;;7.73;55.51;102065.81;5134069;27;20035;-90
2021/04/16 02:28:26;;;;;;;4.05;2.13;;;;;;;7.58;56.12;102058.41;5134489;27;20516;-90
2021/04/16 02:30:51;;;;;;;8.05;2.70;;;;;;;7.51;56.39;102052.50;5134234;27;20022;-90
2021/04/16 02:33:16;;;;;;;7.63;2.45;;;;;;;7.24;57.81;102046.31;5134105;27;20080;-90
2021/04/16 02:35:42;;;;;;;5.78;2.40;;;;;;;7.36;57.42;102058.16;5134041;27;20087;-90
2021/04/16 02:38:07;;;;;;;3.88;2.67;;;;;;;7.21;57.86;102048.13;5133883;27;20023;-90
2021/04/16 02:40:32;;;;;;;7.97;2.30;;;;;;;7.34;57.48;102058.19;5134365;27;20020;-91
2021/04/16 02:42:58;;;;;;;5.85;2.70;;;;;;;7.29;57.53;102059.25;5132698;28;20066;-91
2021/04/16 02:45:25;;;;;;;4.30;2.60;;;;;;;7.27;57.78;102061.06;5133839;27;20023;-91
2021/04/16 02:47:51;;;;;;;7.07;2.25;;;;;;;7.20;57.42;102059.50;5133887;27;20024;-91
2021/04/16 02:50:23;;;;;;;4.05;2.58;;;;;;;7.19;58.00;102047.31;5132897;28;20358;-91
2021/04/16 02:52:48;;;;;;;4.38;2.70;;;;;;;7.14;57.42;102050.91;5133529;27;20023;-91
2021/04/16 02:55:14;;;;;;;3.50;2.60;;;;;;;7.23;58.08;102060.28;5132996;28;20468;-91
2021/04/16 02:57:40;;;;;;;5.25;2.60;;;;;;;7.07;57.70;102048.50;5134519;27;20473;-91
2021/04/16 03:00:13;;;;;;;4.47;2.80;;;;;;;6.92;57.82;102050.66;5135221;27;20026;-92
2021/04/16 03:02:39;;;;;;;5.00;2.63;;;;;;;6.91;58.15;102042.84;5133788;27;20059;-91
2021/04/16 03:05:06;;;;;;;4.30;2.90;;;;;;;7.00;58.79;102054.81;5136752;27;20027;-90
2021/04/16 03:07:31;;;;;;;10.52;5.05;;;;;;;6.97;58.41;102042.72;5137460;27;20477;-91
2021/04/16 03:09:56;;;;;;;8.73;3.40;;;;;;;6.80;58.33;102044.91;5137133;27;20088;-90
2021/04/16 03:12:22;;;;;;;3.55;2.60;;;;;;;6.83;58.24;102045.69;5136652;27;20023;-91
2021/04/16 03:14:47;;;;;;;4.15;2.60;;;;;;;6.89;57.86;102050.75;5137690;27;20019;-91
2021/04/16 03:17:13;;;;;;;5.32;3.17;;;;;;;6.81;57.94;102054.44;5137743;27;20023;-90
2021/04/16 03:19:39;;;;;;;6.55;3.22;;;;;;;6.68;59.89;102062.59;5143123;27;20523;-91
2021/04/16 03:22:04;;;;;;;7.53;2.90;;;;;;;6.54;60.31;102064.69;5137708;27;20088;-91
2021/04/16 03:24:29;;;;;;;6.28;2.88;;;;;;;6.67;60.45;102054.78;5136331;27;20019;-91
2021/04/16 03:26:55;;;;;;;5.57;3.15;;;;;;;6.43;61.26;102051.03;5140721;27;20030;-91
2021/04/16 03:29:20;;;;;;;7.82;2.92;;;;;;;6.48;60.71;102052.63;5136191;27;20019;-91
2021/04/16 03:31:46;;;;;;;3.33;2.70;;;;;;;6.34;61.34;102052.97;5137272;27;20118;-90
2021/04/16 03:34:11;;;;;;;8.15;3.20;;;;;;;6.38;61.44;102058.09;5137140;27;20023;-90
2021/04/16 03:36:37;;;;;;;3.33;3.03;;;;;;;6.59;60.99;102057.59;5136998;27;20027;-92
2021/04/16 03:39:03;;;;;;;4.53;3.05;;;;;;;6.66;60.91;102053.09;5136734;27;20030;-91
2021/04/16 03:41:29;;;;;;;8.02;3.30;;;;;;;6.65;60.69;102053.97;5136965;27;20019;-91
2021/04/16 03:43:54;;;;;;;7.95;3.60;;;;;;;6.56;60.36;102047.25;5135471;27;20023;-91
2021/04/16 03:46:20;;;;;;;4.13;2.90;;;;;;;6.59;60.29;102060.19;5136782;27;20099;-91
2021/04/16 03:48:45;;;;;;;3.95;2.90;;;;;;;6.44;61.60;102064.06;5135635;27;20023;-92
2021/04/16 03:51:11;;;;;;;3.88;3.00;;;;;;;6.63;60.46;102059.22;5135444;27;20031;-90
2021/04/16 03:53:39;;;;;;;7.93;3.20;;;;;;;6.43;60.46;102040.59;5136597;27;20031;-91
2021/04/16 03:56:07;;;;;;;11.05;3.13;;;;;;;6.44;60.70;102058.84;5137106;27;20023;-91
2021/04/16 03:58:33;;;;;;;4.40;3.55;;;;;;;6.44;60.40;102052.75;5136867;27;20027;-91
2021/04/16 04:00:59;;;;;;;4.80;3.00;;;;;;;6.32;60.79;102057.38;5136802;27;20473;-91
2021/04/16 04:03:24;;;;;;;8.02;3.35;;;;;;;6.37;60.18;102059.88;5135546;27;20030;-91
2021/04/16 04:05:50;;;;;;;3.75;3.05;;;;;;;6.27;60.63;102061.81;5136686;27;20024;-91
2021/04/16 04:08:15;;;;;;;5.13;3.13;;;;;;;6.22;61.35;102062.81;5135898;27;20438;-91
2021/04/16 04:10:40;;;;;;;4.43;3.50;;;;;;;6.31;60.69;102067.84;5136384;27;20027;-91
2021/04/16 04:13:08;;;;;;;5.18;3.30;;;;;;;6.33;60.41;102069.50;5135327;27;20453;-91
2021/04/16 04:15:34;;;;;;;4.97;3.28;;;;;;;6.28;60.76;102063.56;5135768;27;20442;-91
2021/04/16 04:18:00;;;;;;;5.40;3.70;;;;;;;6.10;61.26;102059.63;5136507;27;20024;-91
2021/04/16 04:20:29;;;;;;;5.22;3.58;;;;;;;6.16;60.93;102061.22;5136022;27;20071;-91
2021/04/16 04:22:55;;;;;;;5.07;3.63;;;;;;;6.22;60.47;102058.50;5135820;27;20045;-90
2021/04/16 04:25:22;;;;;;;6.20;3.45;;;;;;;6.27;60.25;102059.22;5134763;27;20031;-91
2021/04/16 04:27:49;;;;;;;6.35;3.47;;;;;;;6.23;61.06;102060.19;5135017;27;20062;-91
2021/04/16 04:30:16;;;;;;;5.88;3.33;;;;;;;6.17;61.01;102051.66;5136310;27;20031;-91
2021/04/16 04:32:41;;;;;;;6.07;3.90;;;;;;;5.78;62.52;102052.47;5136155;27;20015;-91
2021/04/16 04:35:08;;;;;;;6.07;4.30;;;;;;;5.97;61.77;102065.16;5136015;27;20379;-91
2021/04/16 04:37:33;;;;;;;6.10;4.20;;;;;;;5.99;61.32;102052.94;5135899;27;20030;-92
2021/04/16 04:40:00;;;;;;;4.85;3.45;;;;;;;6.15;60.67;102062.13;5134287;27;20027;-91
2021/04/16 04:42:25;;;;;;;7.72;3.53;;;;;;;6.15;60.73;102064.72;5136041;27;20119;-92
2021/04/16 04:44:50;;;;;;;4.35;3.40;;;;;;;6.13;60.43;102058.69;5136166;27;20050;-92
2021/04/16 04:47:16;;;;;;;6.93;3.75;;;;;;;6.04;60.22;102061.50;5135835;27;20437;-91
2021/04/16 04:49:42;;;;;;;4.65;3.67;;;;;;;6.00;60.36;102068.53;5134674;27;20023;-91
2021/04/16 04:52:15;;;;;;;6.07;4.40;;;;;;;5.96;61.14;102059.06;5134612;27;20541;-91
2021/04/16 04:54:48;;;;;;;3.85;3.28;;;;;;;6.11;60.95;102073.53;5134408;27;20023;-91
2021/04/16 04:57:14;;;;;;;9.23;3.63;;;;;;;5.89;61.67;102070.50;5136231;27;20023;-91
2021/04/16 04:59:42;;;;;;;5.60;4.50;;;;;;;5.97;61.30;102075.59;5137832;27;20024;-91
2021/04/16 05:02:07;;;;;;;5.68;4.00;;;;;;;5.98;60.80;102069.47;5135595;27;20102;-91
2021/04/16 05:04:33;;;;;;;6.53;3.92;;;;;;;6.05;60.76;102079.72;5137304;27;20442;-91
2021/04/16 05:06:58;;;;;;;5.75;4.38;;;;;;;5.93;60.88;102067.78;5136994;27;20019;-92
2021/04/16 05:09:23;;;;;;;5.85;3.70;;;;;;;5.96;60.83;102072.09;5138156;27;20488;-92
2021/04/16 05:11:49;;;;;;;7.63;4.13;;;;;;;5.99;60.37;102085.06;5136286;27;20023;-92
2021/04/16 05:14:15;;;;;;;7.55;4.30;;;;;;;5.83;60.45;102074.09;5138277;27;20112;-91
2021/04/16 05:16:40;;;;;;;10.43;3.80;;;;;;;5.82;60.41;102082.78;5138753;27;20050;-92
2021/04/16 05:19:06;;;;;;;7.50;4.05;;;;;;;5.71;61.09;102080.41;5136412;27;20479;-93
2021/04/16 05:21:33;;;;;;;5.88;4.28;;;;;;;5.77;61.03;102089.88;5134049;27;20075;-92
2021/04/16 05:23:59;;;;;;;5.80;4.00;;;;;;;5.70;60.70;102078.69;5134313;27;20042;-93
2021/04/16 05:26:24;;;;;;;4.90;3.97;;;;;;;5.65;60.44;102074.50;5133250;27;20055;-94
2021/04/16 05:28:49;;;;;;;8.98;3.78;;;;;;;5.70;60.30;102090.88;5134189;27;20024;-93
2021/04/16 05:31:15;;;;;;;4.97;3.88;;;;;;;5.63;61.11;102084.06;5128931;27;20019;-92
2021/04/16 05:33:40;;;;;;;7.88;4.20;;;;;;;5.64;60.58;102080.56;5127707;27;20023;-92
2021/04/16 05:36:06;;;;;;;6.80;4.25;;;;;;;5.61;61.07;102086.72;5143228;27;20023;-94
2021/04/16 05:38:31;;;;;;;7.55;3.85;;;;;;;5.58;61.04;102081.56;5145327;27;20027;-94
2021/04/16 05:40:56;;;;;;;5.40;3.83;;;;;;;5.63;60.79;102087.53;5147518;27;20054;-92
2021/04/16 05:43:22;;;;;;;5.30;3.95;;;;;;;5.67;60.67;102097.00;5147629;27;20031;-93
2021/04/16 05:45:47;;;;;;;5.05;3.88;;;;;;;5.66;60.99;102103.09;5144122;27;20469;-94
2021/04/16 05:48:13;;;;;;;6.22;4.05;;;;;;;5.87;60.68;102100.97;5134256;27;20473;-95
2021/04/16 05:50:39;;;;;;;6.55;3.85;;;;;;;5.84;60.14;102093.19;5134344;27;20114;-93
2021/04/16 05:53:04;;;;;;;4.85;3.85;;;;;;;5.75;60.71;102094.25;5116697;27;20031;-93
2021/04/16 05:55:30;;;;;;;6.07;3.92;;;;;;;5.72;60.75;102094.31;5128224;22;20091;-86
2021/04/16 05:57:55;;;;;;;5.80;4.18;;;;;;;5.80;60.99;102097.59;5032390;28;20033;-86
2021/04/16 06:00:21;;;;;;;7.22;4.40;;;;;;;5.78;60.16;102088.97;5032047;28;20022;-87
2021/04/16 06:02:47;;;;;;;5.72;4.35;;;;;;;5.89;59.64;102093.97;5024454;28;20040;-86
2021/04/16 06:05:16;;;;;;;6.65;3.95;;;;;;;5.91;59.57;102098.25;5024430;28;20056;-86
2021/04/16 06:07:42;;;;;;;6.22;3.95;;;;;;;5.87;60.17;102098.34;5036244;28;20056;-86
2021/04/16 06:10:09;;;;;;;7.35;4.32;;;;;;;5.89;59.70;102102.63;5021672;28;20018;-85
2021/04/16 06:12:37;;;;;;;6.60;4.50;;;;;;;5.83;60.17;102097.56;4985363;28;20963;-86
2021/04/16 06:15:06;;;;;;;6.10;4.10;;;;;;;5.94;59.91;102095.59;4992143;28;20030;-87
2021/04/16 06:17:31;;;;;;;9.10;4.60;;;;;;;6.00;60.24;102107.63;4992354;28;20092;-86
2021/04/16 06:19:56;;;;;;;9.90;5.53;;;;;;;5.88;60.22;102098.28;4991576;28;20023;-86
2021/04/16 06:22:22;;;;;;;6.18;4.63;;;;;;;5.71;60.54;102092.59;5009909;28;20112;-86
2021/04/16 06:24:49;;;;;;;9.07;5.55;;;;;;;5.95;60.70;102104.28;5010333;28;20117;-87
2021/04/16 06:27:15;;;;;;;6.40;4.43;;;;;;;6.02;61.03;102094.56;5011439;28;20057;-87
2021/04/16 06:29:40;;;;;;;6.97;4.38;;;;;;;6.11;60.47;102100.44;5011158;28;20101;-87
2021/04/16 06:32:07;;;;;;;7.70;4.25;;;;;;;6.23;60.58;102095.84;5014203;28;20543;-88
2021/04/16 06:34:32;;;;;;;6.25;4.68;;;;;;;6.34;60.47;102101.69;5010228;28;20038;-86
2021/04/16 06:36:58;;;;;;;7.70;4.35;;;;;;;6.43;60.16;102096.25;5011279;28;20396;-87
2021/04/16 06:39:23;;;;;;;7.40;4.35;;;;;;;6.63;59.56;102108.81;4999805;28;20032;-87
2021/04/16 06:41:50;;;;;;;7.47;5.05;;;;;;;6.74;59.91;102098.97;5015418;28;20038;-87
2021/04/16 06:44:21;;;;;;;8.32;4.40;;;;;;;6.92;59.85;102096.81;5011195;28;20029;-86
2021/04/16 06:47:09;;;;;;;8.30;4.67;;;;;;;8.38;57.17;102094.41;5019231;28;20021;-86
2021/04/16 06:49:37;;;;;;;7.00;4.25;;;;;;;9.85;53.53;102086.69;5010887;28;20408;-87
2021/04/16 06:52:21;;;;;;;6.35;4.53;;;;;;;11.40;49.49;102094.38;5003666;28;20021;-88
2021/04/16 06:54:57;;;;;;;6.25;4.00;;;;;;;12.62;46.40;102090.41;5007869;28;20124;-87
2021/04/16 06:57:31;;;;;;;5.57;4.15;;;;;;;13.59;41.94;102088.09;5020270;28;20037;-86
2021/04/16 07:00:04;;;;;;;5.93;4.25;;;;;;;14.29;41.11;102079.81;4993619;28;20428;-87
2021/04/16 07:02:38;;;;;;;6.70;3.78;;;;;;;15.39;39.28;102090.13;4994100;28;20495;-86
2021/04/16 07:05:09;;;;;;;5.15;3.33;;;;;;;15.93;37.38;102085.00;4997080;28;20096;-86
2021/04/16 07:07:44;;;;;;;9.32;3.78;;;;;;;16.90;34.80;102083.94;5010800;28;20036;-88
2021/04/16 07:10:23;;;;;;;9.10;3.72;;;;;;;16.84;35.37;102081.72;5011202;28;20034;-85
2021/04/16 07:12:51;;;;;;;5.03;3.60;;;;;;;17.93;33.52;102084.75;5000714;28;20025;-88
2021/04/16 07:15:25;;;;;;;8.40;3.80;;;;;;;18.55;32.74;102090.84;5026437;28;20368;-87
2021/04/16 07:17:53;;;;;;;4.93;3.08;;;;;;;19.13;31.58;102094.41;5004375;28;20399;-88
2021/04/16 07:20:22;;;;;;;8.23;3.33;;;;;;;18.71;32.02;102095.88;5010984;28;20025;-90
2021/04/16 07:22:51;;;;;;;4.60;3.25;;;;;;;19.28;31.63;102103.03;4991759;28;20057;-89
2021/04/16 07:25:40;;;;;;;7.78;4.03;;;;;;;19.55;30.41;102101.81;4999774;28;20022;-89
2021/04/16 07:28:09;;;;;;;8.02;3.22;;;;;;;20.18;30.61;102092.31;5011565;28;20030;-90
2021/04/16 07:30:45;;;;;;;5.63;3.40;;;;;;;20.14;29.83;102096.19;5010786;28;20615;-91
2021/04/16 07:33:25;;;;;;;6.40;3.78;;;;;;;19.78;30.40;102098.19;4993136;28;20499;-94
2021/04/16 07:35:52;;;;;;;5.78;3.30;;;;;;;19.62;30.96;102105.69;5011489;28;20535;-93
2021/04/16 07:38:29;;;;;;;7.28;3.47;;;;;;;20.03;30.61;102096.22;5010970;28;20030;-89
2021/04/16 07:41:16;;;;;;;6.95;3.35;;;;;;;19.87;30.69;102101.13;5023155;28;20029;-86
2021/04/16 07:43:47;;;;;;;8.45;2.80;;;;;;;19.71;30.93;102098.81;5012003;28;20038;-88
2021/04/16 07:46:27;;;;;;;8.23;3.23;;;;;;;20.37;30.42;102106.78;5012672;28;20607;-88
2021/04/16 07:49:08;;;;;;;4.32;2.50;;;;;;;20.68;30.20;102104.28;5015857;28;20279;-88
2021/04/16 07:51:33;;;;;;;5.13;2.83;;;;;;;20.78;29.60;102102.50;5019785;28;20034;-88
2021/04/16 07:54:18;;;;;;;5.97;2.78;;;;;;;21.95;28.08;102114.63;5016155;28;20040;-88
2021/04/16 07:56:45;;;;;;;5.25;2.08;;;;;;;22.22;27.41;102105.09;5015939;28;20038;-88
2021/04/16 07:59:14;;;;;;;5.03;2.38;;;;;;;22.79;26.22;102091.88;5014809;28;20817;-87
2021/04/16 08:01:44;;;;;;;6.22;2.47;;;;;;;22.80;26.39;102103.44;5015137;28;20510;-88
2021/04/16 08:04:29;;;;;;;5.82;2.72;;;;;;;23.05;26.96;102096.66;5015310;28;20048;-88
2021/04/16 08:07:15;;;;;;;4.78;2.05;;;;;;;23.01;26.57;102104.09;4999442;28;20021;-87
2021/04/16 08:09:40;;;;;;;3.70;2.10;;;;;;;23.49;25.45;102105.78;5027707;28;20111;-86
2021/04/16 08:12:11;;;;;;;5.35;2.22;;;;;;;23.98;24.47;102097.50;5000466;28;20034;-89
2021/04/16 08:14:39;;;;;;;8.53;2.43;;;;;;;24.28;24.20;102100.81;5001391;28;20080;-87
2021/04/16 08:17:27;;;;;;;5.00;2.08;;;;;;;24.10;24.40;102098.97;5021213;28;20102;-88
2021/04/16 08:19:53;;;;;;;3.13;2.10;;;;;;;24.60;23.71;102088.72;5014653;28;20105;-89
2021/04/16 08:22:30;;;;;;;4.45;2.25;;;;;;;24.43;23.58;102098.47;5024845;28;20042;-90
2021/04/16 08:25:03;;;;;;;4.22;2.22;;;;;;;24.80;23.46;102100.94;4995726;28;20076;-88
2021/04/16 08:27:36;;;;;;;5.10;2.05;;;;;;;23.62;24.76;102094.72;5013410;28;20034;-88
2021/04/16 08:30:20;;;;;;;5.30;2.38;;;;;;;24.87;23.63;102099.31;5013674;28;20026;-88
2021/04/16 08:33:23;;;;;;;6.13;2.40;;;;;;;25.70;22.66;102096.09;5013914;28;20036;-87
2021/04/16 08:35:57;;;;;;;2.75;1.95;;;;;;;25.25;22.31;102094.53;5013052;28;20057;-87
2021/04/16 08:38:26;;;;;;;6.28;2.20;;;;;;;24.47;24.09;102098.00;4995732;28;20034;-87
2021/04/16 08:40:59;;;;;;;4.95;2.40;;;;;;;21.89;27.67;102098.28;5013980;28;20044;-87
2021/04/16 08:43:36;;;;;;;4.10;2.03;;;;;;;22.35;27.13;102102.16;5004076;28;20444;-90
2021/04/16 08:46:09;;;;;;;3.42;1.67;;;;;;;23.11;25.88;102104.94;5014531;28;20045;-88
2021/04/16 08:48:38;;;;;;;4.40;2.47;;;;;;;23.75;26.16;102097.88;5023387;28;20045;-88
2021/04/16 08:51:09;;;;;;;6.38;2.13;;;;;;;22.92;27.34;102102.28;5035682;28;20022;-90
2021/04/16 08:53:34;;;;;;;3.55;1.65;;;;;;;24.22;24.19;102101.44;4997693;28;20069;-89
2021/04/16 08:56:14;;;;;;;3.13;1.60;;;;;;;23.30;24.10;102098.69;5051842;22;20040;-92
2021/04/16 08:58:40;;;;;;;2.55;1.17;;;;;;;24.06;23.91;102108.31;5099150;28;20020;-93
2021/04/16 09:01:11;;;;;;;3.22;1.40;;;;;;;24.94;23.13;102108.47;5110940;28;20026;-91
2021/04/16 09:03:54;;;;;;;2.90;1.67;;;;;;;22.83;25.82;102106.66;5106773;28;20273;-92
2021/04/16 09:06:22;;;;;;;4.20;1.63;;;;;;;22.04;27.51;102104.94;5120477;28;20088;-92
2021/04/16 09:08:49;;;;;;;4.28;1.10;;;;;;;21.60;27.26;102109.72;5099548;27;20099;-94
2021/04/16 09:11:44;;;;;;;3.33;1.30;;;;;;;22.73;25.78;102113.88;5110871;28;20028;-95
2021/04/16 09:14:25;;;;;;;3.58;0.80;;;;;;;23.81;23.37;102109.03;5089290;28;20420;-93
2021/04/16 09:16:50;;;;;;;1.57;0.63;;;;;;;23.64;24.55;102111.50;5095727;28;20024;-90
2021/04/16 09:19:39;;;;;;;4.03;0.85;;;;;;;25.35;24.16;102094.44;5091681;28;20036;-91
2021/04/16 09:22:05;;;;;;;2.53;1.13;;;;;;;23.84;23.92;102108.75;5080656;28;20062;-91
2021/04/16 09:24:56;;;;;;;4.00;0.75;;;;;;;25.59;21.54;102100.91;5095438;28;20012;-90
2021/04/16 09:27:25;;;;;;;1.17;0.70;;;;;;;25.69;22.04;102094.41;5077170;28;20054;-92
2021/04/16 09:29:54;;;;;;;3.20;0.90;;;;;;;24.71;23.58;102099.22;5089862;28;20047;-93
2021/04/16 09:32:52;;;;;;;1.75;0.90;;;;;;;25.15;22.47;102101.84;5091452;28;20112;-91
2021/04/16 09:35:17;;;;;;;2.35;0.77;;;;;;;23.66;24.51;102114.88;5082572;28;20036;-92
2021/04/16 09:37:48;;;;;;;3.05;0.93;;;;;;;22.28;26.26;102117.13;5087568;28;20031;-91
2021/04/16 09:40:19;;;;;;;1.55;0.93;;;;;;;21.88;27.05;102117.97;5080152;28;20030;-91
2021/04/16 09:43:08;;;;;;;1.23;0.63;;;;;;;21.44;26.80;102114.72;5083015;28;20106;-91
2021/04/16 09:45:33;;;;;;;2.65;1.02;;;;;;;21.07;26.86;102112.53;5091256;28;20035;-90
2021/04/16 09:48:17;;;;;;;3.05;1.08;;;;;;;20.43;28.57;102108.94;5086104;28;20020;-91
2021/04/16 09:50:43;;;;;;;3.47;0.80;;;;;;;19.13;30.04;102114.88;5076794;28;20040;-92
2021/04/16 09:53:23;;;;;;;2.05;1.00;;;;;;;20.16;28.84;102115.59;5080729;28;20035;-91
2021/04/16 09:55:57;;;;;;;1.67;0.60;;;;;;;19.52;28.14;102118.06;5094747;28;20091;-91
2021/04/16 09:58:49;;;;;;;3.38;0.57;;;;;;;19.92;28.33;102112.22;5084037;28;20035;-92
2021/04/16 10:01:20;;;;;;;1.90;1.13;;;;;;;19.41;28.79;102117.09;5075211;28;20054;-91
2021/04/16 10:03:55;;;;;;;4.25;0.80;;;;;;;18.79;29.67;102109.44;5077466;28;20394;-91
2021/04/16 10:06:31;;;;;;;1.77;0.70;;;;;;;18.31;30.44;102109.50;5081425;28;20507;-91
2021/04/16 10:09:05;;;;;;;2.75;0.82;;;;;;;18.78;29.66;102118.41;5089525;28;20031;-90
2021/04/16 10:11:32;;;;;;;2.35;1.02;;;;;;;19.96;28.92;102116.34;5084307;28;20020;-96
2021/04/16 10:14:16;;;;;;;1.55;0.82;;;;;;;21.43;26.51;102113.03;5093774;28;20020;-95
2021/04/16 10:16:44;;;;;;;1.70;0.82;;;;;;;22.16;25.50;102106.50;5079389;28;20024;-96
2021/04/16 10:19:18;;;;;;;1.20;0.63;;;;;;;23.52;23.54;102104.66;5092535;28;20473;-96
2021/04/16 10:21:44;;;;;;;2.08;0.57;;;;;;;23.82;22.96;102100.03;5098579;28;20024;-95
2021/04/16 12:40:56;;;;;;;2.08;0.80;;;;;;;19.64;26.33;102001.66;5097421;28;20028;-92
2021/04/16 12:43:23;;;;;;;2.13;0.70;;;;;;;20.19;26.21;101997.97;5096356;28;20020;-93
2021/04/16 12:45:53;;;;;;;3.60;1.33;;;;;;;21.29;23.65;101984.16;5096745;28;20429;-93
2021/04/16 12:48:19;;;;;;;1.17;0.80;;;;;;;21.79;22.96;101993.97;5095897;28;20482;-93
2021/04/16 12:50:44;;;;;;;4.32;0.63;;;;;;;22.25;23.56;101994.31;5097494;28;20108;-95
2021/04/16 12:53:10;;;;;;;2.22;1.33;;;;;;;22.66;22.94;101985.06;5095316;28;20103;-95
2021/04/16 12:55:35;;;;;;;3.03;0.82;;;;;;;21.68;22.62;101981.59;5097389;28;20047;-93
2021/04/16 12:58:05;;;;;;;2.65;1.05;;;;;;;21.59;23.32;101993.13;5097182;28;20103;-93
2021/04/16 13:00:34;;;;;;;2.55;1.55;;;;;;;20.83;25.06;101998.00;5096150;28;20063;-94
2021/04/16 13:03:26;;;;;;;2.80;1.00;;;;;;;20.64;26.51;101983.59;5096540;28;20035;-94
2021/04/16 13:05:52;;;;;;;1.70;0.80;;;;;;;20.21;27.24;101981.84;5097617;28;20077;-94
2021/04/16 13:08:18;;;;;;;1.92;0.90;;;;;;;19.30;27.41;101991.91;5096407;28;20039;-94
2021/04/16 13:10:45;;;;;;;3.92;0.88;;;;;;;18.81;28.49;101987.78;5095291;28;20032;-96
2021/04/16 13:13:10;;;;;;;1.95;0.82;;;;;;;18.65;28.22;101985.44;5096454;28;20024;-93
2021/04/16 13:15:35;;;;;;;1.20;0.80;;;;;;;18.41;29.41;101982.84;5095505;28;20109;-94
2021/04/16 13:18:08;;;;;;;4.68;0.90;;;;;;;18.12;29.04;101985.03;5095657;28;20024;-94
2021/04/16 13:20:33;;;;;;;2.90;0.70;;;;;;;17.79;27.90;101986.53;5096073;28;20020;-94
2021/04/16 13:22:59;;;;;;;1.77;0.88;;;;;;;18.04;26.25;101991.78;5095561;28;20043;-94
2021/04/16 13:25:27;;;;;;;1.55;0.82;;;;;;;18.21;26.54;101987.88;5096286;28;20030;-91
2021/04/16 13:27:54;;;;;;;1.40;0.90;;;;;;;17.40;30.50;101975.22;5094649;28;20108;-91
2021/04/16 13:30:22;;;;;;;1.88;0.90;;;;;;;17.74;30.70;101972.75;5094002;28;20024;-92
2021/04/16 13:32:51;;;;;;;1.65;0.70;;;;;;;18.07;30.17;101984.53;5094209;28;20110;-91
2021/04/16 13:35:28;;;;;;;1.52;0.80;;;;;;;17.97;31.13;101979.03;5095659;28;20032;-92
2021/04/16 13:37:53;;;;;;;5.38;0.80;;;;;;;18.27;29.44;101975.09;5095262;28;20032;-93
2021/04/16 13:40:19;;;;;;;2.55;0.57;;;;;;;17.90;28.49;101977.81;5094718;28;20075;-92
2021/04/16 13:42:45;;;;;;;1.70;0.77;;;;;;;17.84;28.80;101977.31;5094405;28;20323;-93
2021/04/16 13:45:11;;;;;;;1.75;0.80;;;;;;;17.64;29.26;101984.06;5093525;28;20454;-93
2021/04/16 13:47:40;;;;;;;1.23;0.60;;;;;;;17.76;29.48;101981.47;5093280;28;20012;-93
2021/04/16 13:50:07;;;;;;;3.08;0.75;;;;;;;17.44;29.92;101972.22;5093627;28;20016;-93
2021/04/16 13:52:32;;;;;;;1.63;0.57;;;;;;;17.57;29.51;101966.00;5093892;28;20065;-93
2021/04/16 13:54:57;;;;;;;2.20;0.80;;;;;;;17.66;29.44;101962.69;5095289;28;20026;-92
2021/04/16 13:57:23;;;;;;;1.60;0.70;;;;;;;17.83;29.64;101962.34;5094024;28;20500;-92